EST,Max TemperatureF,Mean TemperatureF,Min TemperatureF,Max Dew PointF,MeanDew PointF,Min DewpointF,Max Humidity, Mean Humidity, Min Humidity, Max Sea Level PressureIn, Mean Sea Level PressureIn, Min Sea Level PressureIn, Max VisibilityMiles, Mean VisibilityMiles, Min VisibilityMiles, Max Wind SpeedMPH, Mean Wind SpeedMPH, Max Gust SpeedMPH,PrecipitationIn, CloudCover, Events, WindDirDegrees
2013-12-1,48,42,37,46,38,30,100,83,66,30.46,30.20,30.00,10,9,0,12,8,17,0.03,7,Fog-Rain,142
2013-12-2,42,40,37,39,39,37,100,96,87,30.00,29.97,29.93,10,7,0,7,3,,0.00,8,Fog,299
2013-12-3,46,40,33,37,36,32,100,90,71,29.95,29.90,29.85,10,8,2,9,4,,0.00,4,,302
2013-12-4,46,38,30,32,30,27,100,82,50,30.22,30.11,29.96,10,9,4,8,4,,0.00,0,,257
2013-12-5,57,44,30,55,43,28,100,93,81,30.23,30.12,29.93,10,8,0,16,4,22,0.00,6,Fog-Rain,154
2013-12-6,59,49,37,57,46,36,100,88,71,30.13,30.00,29.91,10,8,2,12,7,22,0.27,8,Rain,294
2013-12-7,41,36,32,36,28,18,93,74,52,30.46,30.25,30.08,10,9,1,14,7,18,0.19,4,Rain,302
2013-12-8,33,30,26,23,19,14,74,61,44,30.61,30.55,30.46,10,10,5,7,3,,0.00,2,,298
2013-12-9,44,38,32,45,37,23,100,94,65,30.50,30.13,29.88,10,3,0,22,9,30,0.22,8,Rain-Snow,93
2013-12-10,37,32,26,36,31,21,100,91,69,30.03,29.91,29.81,10,7,0,12,4,17,0.08,3,Rain-Snow,253
2013-12-11,32,28,24,21,20,19,86,71,60,30.25,30.17,30.04,10,10,10,12,6,21,0.00,0,,236
2013-12-12,28,20,12,19,10,1,86,64,31,30.29,30.21,30.11,10,10,6,15,5,23,0.00,0,,270
2013-12-13,32,23,14,18,12,9,79,56,41,30.38,30.13,30.03,10,10,10,16,7,25,0.00,1,,255
2013-12-14,32,24,17,32,16,3,100,73,53,30.61,30.47,30.17,10,6,0,21,9,31,0.02,5,Rain-Snow,355
2013-12-15,42,34,26,43,31,23,100,90,75,30.13,29.64,29.33,10,6,0,25,14,37,0.46,6,Rain-Snow,274
2013-12-16,32,26,19,23,13,5,80,55,32,30.23,30.00,29.78,10,10,5,16,6,24,0.00,2,,262
2013-12-17,35,22,10,34,20,7,100,84,59,30.30,30.14,29.91,10,6,0,15,4,25,0.26,5,Rain-Snow,12
2013-12-18,35,30,24,32,24,21,100,80,60,30.10,29.95,29.83,10,9,2,14,9,26,0.00,3,,283
2013-12-19,46,37,28,30,26,21,87,71,50,30.14,30.08,29.97,10,10,5,14,6,24,0.00,1,,222
2013-12-20,53,42,32,39,34,28,100,74,51,30.15,30.04,29.94,10,10,4,13,5,20,0.00,1,,202
2013-12-21,60,54,48,52,47,37,93,79,63,30.00,29.94,29.90,10,10,9,13,8,20,0.00,3,,206
2013-12-22,64,52,41,61,49,39,100,93,82,30.03,29.91,29.83,10,7,0,22,9,37,0.00,7,Fog,243
2013-12-23,42,38,35,43,39,34,100,99,93,30.10,30.04,29.97,10,3,0,9,4,18,0.60,8,Fog-Rain,337
2013-12-24,39,34,30,37,26,18,93,71,52,30.20,30.11,30.05,10,10,10,10,7,18,0.00,2,,308
2013-12-25,32,26,19,19,10,3,74,58,49,30.57,30.45,30.20,10,10,5,13,7,23,0.00,2,,294
2013-12-26,39,30,21,36,26,12,100,83,63,30.52,30.30,30.08,10,10,5,13,4,17,0.05,5,Rain,208
2013-12-27,35,32,28,27,22,19,86,70,52,30.30,30.26,30.21,10,10,4,12,6,22,0.00,0,,246
2013-12-28,50,39,28,30,27,23,81,69,43,30.25,30.12,30.01,10,10,2,17,5,26,0.00,0,,218
2013-12-29,46,40,33,43,37,30,100,85,62,30.06,29.80,29.35,10,7,1,16,6,31,1.01,4,Rain,228
2013-12-30,42,34,26,37,26,12,100,70,38,30.16,29.88,29.50,10,10,10,16,8,25,0.00,1,,270
2013-12-31,28,24,19,16,8,1,80,54,37,30.20,30.13,30.05,10,10,10,9,6,20,0.00,2,,275